Albuquerque, NM (87110)

9:45 AM MST on February 13, 2016 (GMT -0700)
La Resolana | | Change Station
CLOSE
Current Station
Personal Weather Station
Location: Albuquerque, NM
Elevation: 5225 ft
Nearby Weather Stations

Elev 5225 ft 35.09 °N, 106.60 °W | Updated 21 seconds ago

Clear
Clear
47.8 °F
Feels Like 48 °F
N
0.9
Wind Variable Wind from SSE
Gusts 1.0 mph

Today
High -- | Low -- °F
--% Chance of Precip.
Yesterday
High -- | Low -- °F
Precip. -- in
Pressure 30.26 in
Visibility 10.0 miles
Clouds Few 15000 ft
Windchill 48 °F
Dew Point 24 °F
Humidity 38%
Rainfall 0.00 in
Snow Depth Not available.
6:54 AM 5:46 PM
Waxing Crescent, 32% visible
METAR KABQ 131552Z 00000KT 10SM FEW150 06/M06 A3032 RMK AO2 SLP245 T00561056
Pressure 30.26 in
Visibility 10.0 miles
Clouds Few 15000 ft
Windchill 48 °F
Dew Point 24 °F
Humidity 38%
Rainfall 0.00 in
Snow Depth Not available.
6:54 AM 5:46 PM
Waxing Crescent, 32% visible
METAR KABQ 131552Z 00000KT 10SM FEW150 06/M06 A3032 RMK AO2 SLP245 T00561056

10-Day Weather Forecast

Almanac

Astronomy

Feb. 13, 2016 Rise Set
Actual Time
Civil Twilight
Nautical Twilight
Astronomical Twilight
Moon
Length of Visible Light
Length of Day
Tomorrow will be .
, % of the Moon is Illuminated

Today's Extremes

State Highs State Lows

Community

WunderPhotos

Upload Photos

1,892,604 photos uploaded!

WunderBlog® & News

Nearby

Air Quality

  Air Quality AQ Index Pollutant
Not available.

Snow Depth

Station Depth Elevation

Earthquake Activity

City Distance Mag. Time & Date
Minimum magnitude displayed is 2.5.

Coastal Water Temperatures

Place Temperature

Stations

Nearby Weather Stations

Station Location Temp. Windchill Dew Point Humidity Wind Precip. Elev Updated Type
                   

Watches & Warnings

There are currently no watches in effect.